createdAt,value
2022-10-21T00:01:54.296Z,1.00
2022-10-21T00:04:21.211Z,1.10
2022-10-21T00:06:48.133Z,0.98
2022-10-21T00:09:15.061Z,1.10
2022-10-21T00:11:42.037Z,2.35
2022-10-21T00:14:09.197Z,0.90
2022-10-21T00:16:36.118Z,1.02
2022-10-21T00:19:03.377Z,1.10
2022-10-21T00:21:30.287Z,1.08
2022-10-21T00:23:57.219Z,1.13
2022-10-21T00:26:24.336Z,1.50
2022-10-21T00:28:56.725Z,0.95
2022-10-21T00:31:24.885Z,0.80
2022-10-21T00:33:52.196Z,1.05
2022-10-21T00:36:19.394Z,1.23
2022-10-21T00:38:48.683Z,1.08
2022-10-21T00:41:17.972Z,0.80
2022-10-21T00:43:55.686Z,1.08
2022-10-21T00:46:46.738Z,1.17
2022-10-21T00:49:36.441Z,1.35
2022-10-21T00:52:07.129Z,0.90
2022-10-21T00:54:35.434Z,1.38
2022-10-21T00:57:02.426Z,0.90
2022-10-21T00:59:34.341Z,1.23
2022-10-21T01:02:01.332Z,1.35
2022-10-21T01:04:28.411Z,1.00
2022-10-21T01:06:56.134Z,0.98
2022-10-21T01:09:23.878Z,0.98
2022-10-21T01:11:50.778Z,1.13
2022-10-21T01:14:38.558Z,1.20
2022-10-21T01:17:43.735Z,0.90
2022-10-21T01:21:05.302Z,0.95
2022-10-21T01:24:08.712Z,0.65
2022-10-21T01:27:06.434Z,1.15
2022-10-21T01:29:58.622Z,1.08
2022-10-21T01:32:31.261Z,1.05
2022-10-21T01:35:06.735Z,1.15
2022-10-21T01:37:58.401Z,0.98
2022-10-21T01:40:43.064Z,1.15
2022-10-21T01:43:15.792Z,0.90
2022-10-21T01:45:56.860Z,1.20
2022-10-21T01:48:30.028Z,1.42
2022-10-21T01:51:01.750Z,1.02
2022-10-21T01:54:03.834Z,0.80
2022-10-21T01:56:32.318Z,0.82
2022-10-21T01:59:01.561Z,0.80
2022-10-21T02:01:29.410Z,1.10
2022-10-21T02:04:01.261Z,1.40
2022-10-21T02:06:28.389Z,0.80
2022-10-21T02:08:55.731Z,0.70
2022-10-21T02:11:23.065Z,1.00
2022-10-21T02:14:02.835Z,0.50
2022-10-21T02:16:35.618Z,1.02
2022-10-21T02:19:02.546Z,0.70
2022-10-21T02:21:34.551Z,1.10
2022-10-21T02:24:20.261Z,1.00
2022-10-21T02:26:47.185Z,0.80
2022-10-21T02:29:15.118Z,0.90
2022-10-21T02:32:07.828Z,1.05
2022-10-21T02:34:43.518Z,0.70
2022-10-21T02:37:36.837Z,1.00
2022-10-21T02:40:12.094Z,1.00
2022-10-21T02:42:48.218Z,0.70
2022-10-21T02:45:17.687Z,0.80
2022-10-21T02:47:45.035Z,0.98
2022-10-21T02:50:13.058Z,1.00
2022-10-21T02:52:39.989Z,1.10
2022-10-21T02:55:07.274Z,0.95
2022-10-21T02:57:34.166Z,1.08
2022-10-21T03:00:01.071Z,1.10
2022-10-21T03:02:27.960Z,1.08
2022-10-21T03:04:54.806Z,1.10
2022-10-21T03:07:21.652Z,1.00
2022-10-21T03:09:48.516Z,1.70
2022-10-21T03:12:15.467Z,1.30
2022-10-21T03:14:42.349Z,1.75
2022-10-21T03:17:09.352Z,1.70
2022-10-21T03:19:36.223Z,1.92
2022-10-21T03:22:03.104Z,1.77
2022-10-21T03:24:29.956Z,1.50
2022-10-21T03:26:56.823Z,1.83
2022-10-21T03:29:23.851Z,1.98
2022-10-21T03:31:50.800Z,1.77
2022-10-21T03:34:17.865Z,1.33
2022-10-21T03:36:44.794Z,2.05
2022-10-21T03:39:12.378Z,2.10
2022-10-21T03:41:39.618Z,1.70
2022-10-21T03:44:06.703Z,1.98
2022-10-21T03:46:33.609Z,1.83
2022-10-21T03:49:04.197Z,2.15
2022-10-21T03:51:33.006Z,1.30
2022-10-21T03:53:59.889Z,1.95
2022-10-21T03:56:26.765Z,2.08
2022-10-21T03:58:57.806Z,1.55
2022-10-21T04:01:26.059Z,1.63
2022-10-21T04:03:53.386Z,1.80
2022-10-21T04:06:20.241Z,2.03
2022-10-21T04:08:47.388Z,1.85
2022-10-21T04:11:14.324Z,1.95
2022-10-21T04:13:41.464Z,1.83
2022-10-21T04:16:13.763Z,2.10
2022-10-21T04:18:41.036Z,2.25
2022-10-21T04:21:08.915Z,2.35
2022-10-21T04:23:36.597Z,1.90
2022-10-21T04:26:04.709Z,1.85
2022-10-21T04:28:31.716Z,2.08
2022-10-21T04:30:58.690Z,1.90
2022-10-21T04:33:25.752Z,1.77
2022-10-21T04:35:55.091Z,2.15
2022-10-21T04:38:23.276Z,1.95
2022-10-21T04:41:00.306Z,2.03
2022-10-21T04:43:27.870Z,2.25
2022-10-21T04:45:55.165Z,1.73
2022-10-21T04:48:23.036Z,2.35
2022-10-21T04:50:53.279Z,2.20
2022-10-21T04:53:21.201Z,2.55
2022-10-21T04:55:52.907Z,2.53
2022-10-21T04:58:22.007Z,2.10
2022-10-21T05:00:52.883Z,2.58
2022-10-21T05:03:20.392Z,2.03
2022-10-21T05:05:51.697Z,2.53
2022-10-21T05:08:20.024Z,1.75
2022-10-21T05:10:47.085Z,2.88
2022-10-21T05:13:14.623Z,2.80
2022-10-21T05:15:41.523Z,2.85
2022-10-21T05:18:08.403Z,2.92
2022-10-21T05:20:35.316Z,2.00
2022-10-21T05:23:02.233Z,2.17
2022-10-21T05:25:31.783Z,1.60
2022-10-21T05:28:01.191Z,2.17
2022-10-21T05:30:28.184Z,2.35
2022-10-21T05:32:55.161Z,2.25
2022-10-21T05:35:22.007Z,2.15
2022-10-21T05:37:48.916Z,2.30
2022-10-21T05:40:15.881Z,2.22
2022-10-21T05:42:42.818Z,2.47
2022-10-21T05:45:10.573Z,1.98
2022-10-21T05:47:38.367Z,3.05
2022-10-21T05:50:05.628Z,1.80
2022-10-21T05:52:32.475Z,1.80
2022-10-21T05:54:59.309Z,1.73
2022-10-21T05:57:26.171Z,2.00
2022-10-21T05:59:53.005Z,1.92
2022-10-21T06:02:19.873Z,2.38
2022-10-21T06:04:46.760Z,1.77
2022-10-21T06:07:13.651Z,1.58
2022-10-21T06:09:40.594Z,2.13
2022-10-21T06:12:07.864Z,1.85
2022-10-21T06:14:37.577Z,1.33
2022-10-21T06:21:40.374Z,1.10
2022-10-21T06:24:07.380Z,1.50
2022-10-21T06:26:36.208Z,1.00
2022-10-21T06:29:04.199Z,1.10
2022-10-21T06:31:31.222Z,1.48
2022-10-21T06:33:58.040Z,1.00
2022-10-21T06:36:24.867Z,0.90
2022-10-21T06:38:51.736Z,1.25
2022-10-21T06:41:19.142Z,0.90
2022-10-21T06:43:46.061Z,1.10
2022-10-21T06:46:15.665Z,1.00
2022-10-21T06:48:42.551Z,1.27
2022-10-21T06:51:12.656Z,1.00
2022-10-21T06:53:39.746Z,1.33
2022-10-21T06:56:09.323Z,0.73
2022-10-21T06:58:37.574Z,0.85
2022-10-21T07:01:27.307Z,0.85
2022-10-21T07:04:00.298Z,0.90
2022-10-21T07:06:27.316Z,1.10
2022-10-21T07:08:58.255Z,0.90
2022-10-21T07:11:26.535Z,0.70
2022-10-21T07:13:53.387Z,0.90
2022-10-21T07:16:28.919Z,0.98
2022-10-21T07:18:56.773Z,0.77
2022-10-21T07:21:26.526Z,0.90
2022-10-21T07:23:56.583Z,1.10
2022-10-21T07:26:28.517Z,0.85
2022-10-21T07:28:58.292Z,1.48
2022-10-21T07:31:25.455Z,1.27
2022-10-21T07:33:52.579Z,1.48
2022-10-21T07:36:23.507Z,1.30
2022-10-21T07:38:51.642Z,1.30
2022-10-21T07:41:24.196Z,1.23
2022-10-21T07:43:51.976Z,1.20
2022-10-21T07:46:20.336Z,1.40
2022-10-21T07:48:47.840Z,1.00
2022-10-21T07:57:31.942Z,1.50
2022-10-21T07:59:58.867Z,1.23
2022-10-21T08:02:25.782Z,1.33
2022-10-21T08:04:55.101Z,1.40
2022-10-21T08:07:21.982Z,1.08
2022-10-21T08:09:49.024Z,1.38
2022-10-21T08:12:16.016Z,1.38
2022-10-21T08:14:42.884Z,1.08
2022-10-21T08:17:09.805Z,1.27
2022-10-21T08:19:36.690Z,1.10
2022-10-21T08:22:03.572Z,1.40
2022-10-21T08:24:30.589Z,1.40
2022-10-21T08:26:57.537Z,1.13
2022-10-21T08:29:24.784Z,1.30
2022-10-21T08:31:52.873Z,1.08
2022-10-21T08:34:19.716Z,1.33
2022-10-21T08:36:46.658Z,0.85
2022-10-21T08:39:13.650Z,1.83
2022-10-21T08:42:00.905Z,1.80
2022-10-21T08:47:18.503Z,1.88
2022-10-21T08:50:12.503Z,2.08
2022-10-21T08:52:55.038Z,1.35
2022-10-21T08:55:34.572Z,1.80
2022-10-21T08:58:02.705Z,1.60
2022-10-21T09:00:36.006Z,1.73
2022-10-21T09:03:29.833Z,1.58
2022-10-21T09:06:33.900Z,1.63
2022-10-21T09:09:42.073Z,1.80
2022-10-21T09:14:51.327Z,1.10
2022-10-21T09:17:37.037Z,1.50
2022-10-21T09:20:41.345Z,1.20
2022-10-21T09:26:26.595Z,1.17
2022-10-21T09:28:56.925Z,1.08
2022-10-21T09:31:23.770Z,1.52
2022-10-21T09:33:57.360Z,1.17
2022-10-21T09:36:32.535Z,1.35
2022-10-21T09:39:06.556Z,1.20
2022-10-21T09:41:41.084Z,1.17
2022-10-21T10:16:33.234Z,1.45
2022-10-21T10:19:20.067Z,1.40
2022-10-21T10:22:10.222Z,1.00
2022-10-21T10:24:40.746Z,3.53
2022-10-21T10:27:23.591Z,1.33
2022-10-21T10:29:55.581Z,1.50
2022-10-21T10:32:26.045Z,1.17
2022-10-21T10:34:56.791Z,1.35
2022-10-21T10:37:26.395Z,1.92
2022-10-21T10:39:59.413Z,1.33
2022-10-21T10:42:34.055Z,1.55
2022-10-21T10:45:05.653Z,1.83
2022-10-21T10:47:42.242Z,1.63
2022-10-21T10:53:31.086Z,1.77
2022-10-21T10:56:03.714Z,1.27
2022-10-21T10:58:35.947Z,1.38
2022-10-21T11:01:11.483Z,1.38
2022-10-21T11:03:47.725Z,1.40
2022-10-21T11:06:21.898Z,1.40
2022-10-21T11:08:57.788Z,1.27
2022-10-21T11:11:36.668Z,1.55
2022-10-21T11:14:03.663Z,1.42
2022-10-21T11:16:59.430Z,1.70
2022-10-21T11:19:30.599Z,1.00
2022-10-21T11:22:06.037Z,1.23
2022-10-21T11:24:54.884Z,1.30
2022-10-21T11:27:59.901Z,1.27
2022-10-21T11:31:27.888Z,1.40
2022-10-21T11:34:03.232Z,1.33
2022-10-21T11:37:02.413Z,1.33
2022-10-21T11:39:54.305Z,1.40
2022-10-21T11:42:47.328Z,1.23
2022-10-21T12:00:25.617Z,1.42
2022-10-21T12:03:26.277Z,1.20
2022-10-21T12:06:04.165Z,1.10
2022-10-21T12:08:43.837Z,1.33
2022-10-21T12:11:29.375Z,1.25
2022-10-21T12:14:26.563Z,1.27
2022-10-21T12:16:58.795Z,1.08
2022-10-21T12:19:26.296Z,1.30
2022-10-21T12:21:53.209Z,1.13
2022-10-21T12:24:42.363Z,1.05
2022-10-21T12:27:29.990Z,1.40
2022-10-21T12:30:03.296Z,1.40
2022-10-21T12:32:45.007Z,1.08
2022-10-21T12:35:17.071Z,1.35
2022-10-21T12:37:52.860Z,1.25
2022-10-21T12:40:25.776Z,1.30
2022-10-21T12:43:05.877Z,0.90
2022-10-21T12:45:35.830Z,1.38
2022-10-21T12:48:31.927Z,1.10
2022-10-21T12:51:02.544Z,1.20
2022-10-21T12:53:42.965Z,1.13
2022-10-21T12:56:11.150Z,0.80
2022-10-21T12:58:44.113Z,0.85
2022-10-21T13:01:42.356Z,1.00
2022-10-21T13:04:34.048Z,1.10
2022-10-21T13:07:01.815Z,1.20
2022-10-21T13:09:43.910Z,0.77
2022-10-21T13:12:10.933Z,1.13
2022-10-21T13:15:22.190Z,0.82
2022-10-21T13:17:52.820Z,1.10
2022-10-21T13:20:22.692Z,1.25
2022-10-21T13:23:01.873Z,1.20
2022-10-21T13:25:32.994Z,1.30
2022-10-21T13:28:25.800Z,1.40
2022-10-21T13:30:52.651Z,1.00
2022-10-21T13:33:25.620Z,1.17
2022-10-21T13:35:56.102Z,1.00
2022-10-21T13:38:23.227Z,0.90
2022-10-21T13:40:56.691Z,0.68
2022-10-21T13:43:48.380Z,0.80
2022-10-21T13:46:19.048Z,0.80
2022-10-21T13:48:48.497Z,0.93
2022-10-21T13:51:23.799Z,1.15
2022-10-21T13:53:55.208Z,0.70
2022-10-21T13:56:24.176Z,1.10
2022-10-21T13:58:51.812Z,0.77
2022-10-21T14:01:31.331Z,1.05
2022-10-21T14:04:15.781Z,0.90
2022-10-21T14:06:48.795Z,1.20
2022-10-21T14:09:44.492Z,0.88
2022-10-21T14:12:20.004Z,1.13
2022-10-21T14:14:47.495Z,0.93
2022-10-21T14:17:19.863Z,0.90
2022-10-21T14:19:51.090Z,1.15
2022-10-21T14:22:24.998Z,1.25
2022-10-21T14:24:56.830Z,1.20
2022-10-21T14:27:32.812Z,1.77
2022-10-21T14:30:03.742Z,1.08
2022-10-21T14:32:31.049Z,1.00
2022-10-21T14:35:07.307Z,0.90
2022-10-21T14:37:44.847Z,1.13
2022-10-21T14:40:33.693Z,1.08
2022-10-21T14:43:03.830Z,2.05
2022-10-21T14:45:36.515Z,1.73
2022-10-21T14:48:11.827Z,1.88
2022-10-21T14:50:41.527Z,1.30
2022-10-21T14:53:17.180Z,1.35
2022-10-21T14:55:46.002Z,1.23
2022-10-21T14:58:23.329Z,0.98
2022-10-21T15:00:59.929Z,1.17
2022-10-21T15:03:57.582Z,1.00
2022-10-21T15:06:30.201Z,0.95
2022-10-21T15:08:57.313Z,1.27
2022-10-21T15:11:26.873Z,1.00
2022-10-21T15:14:13.607Z,1.30
2022-10-21T15:16:51.260Z,1.10
2022-10-21T15:19:25.437Z,2.22
2022-10-21T15:22:03.442Z,1.15
2022-10-21T15:24:46.316Z,1.48
2022-10-21T15:27:42.408Z,1.40
2022-10-21T15:30:17.833Z,1.08
2022-10-21T15:32:45.147Z,1.15
2022-10-21T15:35:17.727Z,1.40
2022-10-21T15:37:49.556Z,1.45
2022-10-21T15:40:18.099Z,1.27
2022-10-21T15:42:45.741Z,1.65
2022-10-21T15:45:15.352Z,1.45
2022-10-21T15:47:42.402Z,1.38
2022-10-21T15:50:16.624Z,1.77
2022-10-21T15:52:44.081Z,1.75
2022-10-21T15:55:11.426Z,1.45
2022-10-21T15:57:42.304Z,1.52
2022-10-21T16:00:21.836Z,1.70
2022-10-21T16:02:51.710Z,1.75
2022-10-21T16:05:19.757Z,1.42
2022-10-21T16:07:46.699Z,1.83
2022-10-21T16:10:19.691Z,1.73
2022-10-21T16:12:46.911Z,1.67
2022-10-21T16:15:14.683Z,1.50
2022-10-21T16:17:47.273Z,1.42
2022-10-21T16:20:27.251Z,1.58
2022-10-21T16:22:54.358Z,1.73
2022-10-21T16:25:21.834Z,1.70
2022-10-21T16:27:56.240Z,2.05
2022-10-21T16:30:26.988Z,1.50
2022-10-21T16:32:54.616Z,1.40
2022-10-21T16:35:22.047Z,2.22
2022-10-21T16:37:49.838Z,1.27
2022-10-21T16:40:23.871Z,1.52
2022-10-21T16:42:52.522Z,1.45
2022-10-21T16:45:21.274Z,1.63
2022-10-21T16:47:52.902Z,1.52
2022-10-21T16:50:43.909Z,1.95
2022-10-21T16:53:14.981Z,1.50
2022-10-21T16:55:42.149Z,1.85
2022-10-21T16:58:09.189Z,1.75
2022-10-21T17:00:36.263Z,1.65
2022-10-21T17:03:03.329Z,1.67
2022-10-21T17:05:30.328Z,1.63
2022-10-21T17:07:58.650Z,1.75
2022-10-21T17:10:25.980Z,2.00
2022-10-21T17:12:58.896Z,1.60
2022-10-21T17:15:26.762Z,1.92
2022-10-21T17:17:53.868Z,1.50
2022-10-21T17:20:21.040Z,1.98
2022-10-21T17:22:48.095Z,1.58
2022-10-21T17:25:15.024Z,1.52
2022-10-21T17:27:42.155Z,1.40
2022-10-21T17:30:10.259Z,1.38
2022-10-21T17:32:37.207Z,1.35
2022-10-21T17:35:04.325Z,1.20
2022-10-21T17:37:31.191Z,1.77
2022-10-21T17:39:58.167Z,1.60
2022-10-21T17:42:25.088Z,1.33
2022-10-21T17:44:52.823Z,1.20
2022-10-21T17:47:19.785Z,1.38
2022-10-21T17:49:46.668Z,2.22
2022-10-21T17:52:13.585Z,1.63
2022-10-21T17:54:40.504Z,1.35
2022-10-21T17:57:07.433Z,1.25
2022-10-21T17:59:34.418Z,1.88
2022-10-21T18:02:01.998Z,1.95
2022-10-21T18:04:28.882Z,1.98
2022-10-21T18:06:56.026Z,1.80
2022-10-21T18:09:22.985Z,1.42
2022-10-21T18:11:50.002Z,1.13
2022-10-21T18:14:16.941Z,1.40
2022-10-21T18:16:43.805Z,1.30
2022-10-21T18:19:12.181Z,1.50
2022-10-21T18:21:39.211Z,1.63
2022-10-21T18:24:09.918Z,1.60
2022-10-21T18:26:39.742Z,1.40
2022-10-21T18:29:06.669Z,1.20
2022-10-21T18:31:37.263Z,1.58
2022-10-21T18:34:05.287Z,1.25
2022-10-21T18:36:32.433Z,1.50
2022-10-21T18:39:00.390Z,1.45
2022-10-21T18:41:27.879Z,1.38
2022-10-21T18:44:04.789Z,1.30
2022-10-21T18:46:32.230Z,1.40
2022-10-21T18:48:59.377Z,1.60
2022-10-21T18:51:26.277Z,1.30
2022-10-21T18:53:53.468Z,1.45
2022-10-21T18:56:22.494Z,1.38
2022-10-21T18:58:50.117Z,1.50
2022-10-21T19:01:18.331Z,1.08
2022-10-21T19:03:46.233Z,1.10
2022-10-21T19:06:42.819Z,1.20
2022-10-21T19:09:20.265Z,1.42
2022-10-21T19:11:47.726Z,1.40
2022-10-21T19:14:16.015Z,1.38
2022-10-21T19:16:44.000Z,1.42
2022-10-21T19:19:11.101Z,1.25
2022-10-21T19:21:38.121Z,1.13
2022-10-21T19:24:05.372Z,1.20
2022-10-21T19:26:34.337Z,1.27
2022-10-21T19:29:07.303Z,1.20
2022-10-21T19:31:36.194Z,1.55
2022-10-21T19:34:06.021Z,1.30
2022-10-21T19:36:32.920Z,1.23
2022-10-21T19:38:59.872Z,1.30
2022-10-21T19:41:26.721Z,1.20
2022-10-21T19:43:58.536Z,1.40
2022-10-21T19:46:27.738Z,1.40
2022-10-21T19:48:54.937Z,1.65
2022-10-21T19:51:24.058Z,1.30
2022-10-21T19:53:51.905Z,1.00
2022-10-21T19:56:23.730Z,1.70
2022-10-21T19:58:54.210Z,1.10
2022-10-21T20:01:24.813Z,1.17
2022-10-21T20:03:53.495Z,1.50
2022-10-21T20:06:23.682Z,1.33
2022-10-21T20:08:51.355Z,1.05
2022-10-21T20:11:20.018Z,1.42
2022-10-21T20:13:47.964Z,1.48
2022-10-21T20:16:17.250Z,1.42
2022-10-21T20:18:44.240Z,1.27
2022-10-21T20:21:11.136Z,1.42
2022-10-21T20:23:38.005Z,1.38
2022-10-21T20:26:05.657Z,1.70
2022-10-21T20:28:32.619Z,1.25
2022-10-21T20:31:06.806Z,1.48
2022-10-21T20:33:36.962Z,1.40
2022-10-21T20:36:06.213Z,1.30
2022-10-21T20:38:33.721Z,1.50
2022-10-21T20:41:03.095Z,1.25
2022-10-21T20:43:30.285Z,1.13
2022-10-21T20:46:00.538Z,1.20
2022-10-21T20:48:28.195Z,1.48
2022-10-21T20:51:09.038Z,1.48
2022-10-21T20:53:37.119Z,1.35
2022-10-21T20:56:04.191Z,1.50
2022-10-21T20:58:35.018Z,1.58
2022-10-21T21:01:14.551Z,1.13
2022-10-21T21:03:43.004Z,1.30
2022-10-21T21:06:11.726Z,1.50
2022-10-21T21:08:48.706Z,1.40
2022-10-21T21:11:21.227Z,1.17
2022-10-21T21:13:48.542Z,1.65
2022-10-21T21:16:18.152Z,1.20
2022-10-21T21:18:51.083Z,1.20
2022-10-21T21:21:19.296Z,1.70
2022-10-21T21:23:46.517Z,1.42
2022-10-21T21:26:17.523Z,1.20
2022-10-21T21:28:45.839Z,1.35
2022-10-21T21:31:14.345Z,1.58
2022-10-21T21:33:42.565Z,1.70
2022-10-21T21:36:09.594Z,1.10
2022-10-21T21:38:36.513Z,1.50
2022-10-21T21:41:06.727Z,1.40
2022-10-21T21:43:37.001Z,1.58
2022-10-21T21:46:04.671Z,1.15
2022-10-21T21:48:32.826Z,1.42
2022-10-21T21:51:10.311Z,1.48
2022-10-21T21:53:38.393Z,1.25
2022-10-21T21:56:07.593Z,1.27
2022-10-21T21:58:34.479Z,1.48
2022-10-21T22:01:14.791Z,1.48
2022-10-21T22:03:42.550Z,1.63
2022-10-21T22:06:09.924Z,1.60
2022-10-21T22:08:41.801Z,1.50
2022-10-21T22:11:11.921Z,1.30
2022-10-21T22:13:39.693Z,1.52
2022-10-21T22:16:08.439Z,1.48
2022-10-21T22:18:36.287Z,2.08
2022-10-21T22:21:12.198Z,1.67
2022-10-21T22:23:40.257Z,1.52
2022-10-21T22:26:07.748Z,1.60
2022-10-21T22:28:35.500Z,1.27
2022-10-21T22:31:11.684Z,1.30
2022-10-21T22:33:39.410Z,1.88
2022-10-21T22:36:06.773Z,1.40
2022-10-21T22:38:33.949Z,1.80
2022-10-21T22:41:02.626Z,1.33
2022-10-21T22:43:30.276Z,1.40
2022-10-21T22:46:05.205Z,1.40
2022-10-21T22:48:42.397Z,1.25
2022-10-21T22:51:09.404Z,1.70
2022-10-21T22:53:36.880Z,1.45
2022-10-21T22:56:04.515Z,1.27
2022-10-21T22:58:31.619Z,1.58
2022-10-21T23:00:58.769Z,1.52
2022-10-21T23:03:25.701Z,1.30
2022-10-21T23:05:52.665Z,1.65
2022-10-21T23:08:19.563Z,1.98
2022-10-21T23:10:49.360Z,1.50
2022-10-21T23:13:16.658Z,1.50
2022-10-21T23:15:44.207Z,1.50
2022-10-21T23:18:11.329Z,1.63
2022-10-21T23:20:38.556Z,1.55
2022-10-21T23:23:05.828Z,1.30
2022-10-21T23:25:33.304Z,1.70
2022-10-21T23:28:00.155Z,1.52
2022-10-21T23:30:27.150Z,1.40
2022-10-21T23:32:54.018Z,1.45
2022-10-21T23:35:21.069Z,1.25
2022-10-21T23:37:47.972Z,1.48
2022-10-21T23:40:14.884Z,1.85
2022-10-21T23:42:42.879Z,1.48
2022-10-21T23:45:11.542Z,1.52
2022-10-21T23:47:39.901Z,1.60
2022-10-21T23:50:08.877Z,1.38
2022-10-21T23:52:36.841Z,1.52
2022-10-21T23:55:08.684Z,1.20
2022-10-21T23:57:35.609Z,1.50
